createdAt,value
2018-10-15T00:01:06.767Z,925.82
2018-10-15T00:02:38.336Z,925.85
2018-10-15T00:04:09.909Z,925.92
2018-10-15T00:07:13.049Z,925.92
2018-10-15T00:08:44.620Z,925.94
2018-10-15T00:10:16.291Z,926.04
2018-10-15T00:11:47.762Z,926.02
2018-10-15T00:13:19.331Z,925.94
2018-10-15T00:14:50.902Z,925.97
2018-10-15T00:16:22.474Z,925.99
2018-10-15T00:17:54.046Z,926.04
2018-10-15T00:19:25.617Z,926.02
2018-10-15T00:20:57.188Z,926.00
2018-10-15T00:22:28.858Z,925.99
2018-10-15T00:24:00.329Z,925.95
2018-10-15T00:25:31.899Z,925.94
2018-10-15T00:27:03.469Z,925.91
2018-10-15T00:28:35.244Z,925.83
2018-10-15T00:30:06.619Z,925.80
2018-10-15T00:31:38.185Z,925.81
2018-10-15T00:33:09.755Z,925.83
2018-10-15T00:34:41.427Z,925.79
2018-10-15T00:36:12.900Z,925.67
2018-10-15T00:37:44.470Z,925.76
2018-10-15T00:39:16.040Z,925.69
2018-10-15T00:40:47.630Z,925.75
2018-10-15T00:42:19.182Z,925.77
2018-10-15T00:43:50.753Z,925.79
2018-10-15T00:45:22.324Z,925.85
2018-10-15T00:46:53.994Z,925.87
2018-10-15T00:48:25.465Z,925.85
2018-10-15T00:49:57.035Z,925.79
2018-10-15T00:51:28.607Z,925.74
2018-10-15T00:53:00.178Z,925.62
2018-10-15T00:54:31.751Z,925.56
2018-10-15T00:56:03.320Z,925.52
2018-10-15T00:57:34.891Z,925.43
2018-10-15T00:59:06.463Z,925.49
2018-10-15T01:00:38.032Z,925.47
2018-10-15T01:02:09.604Z,925.50
2018-10-15T01:03:41.418Z,925.51
2018-10-15T01:05:12.847Z,925.46
2018-10-15T01:06:44.316Z,925.44
2018-10-15T01:08:15.888Z,925.40
2018-10-15T01:09:47.456Z,925.42
2018-10-15T01:11:19.034Z,925.36
2018-10-15T01:12:50.598Z,925.33
2018-10-15T01:14:22.170Z,925.30
2018-10-15T01:15:53.740Z,925.31
2018-10-15T01:17:25.310Z,925.34
2018-10-15T01:18:56.883Z,925.33
2018-10-15T01:20:28.455Z,925.33
2018-10-15T01:22:00.025Z,925.32
2018-10-15T01:23:31.698Z,925.32
2018-10-15T01:25:03.166Z,925.37
2018-10-15T01:26:34.740Z,925.36
2018-10-15T01:28:06.311Z,925.33
2018-10-15T01:29:37.880Z,925.37
2018-10-15T01:31:09.447Z,925.36
2018-10-15T01:32:41.019Z,925.40
2018-10-15T01:34:12.593Z,925.38
2018-10-15T01:37:15.833Z,925.40
2018-10-15T01:38:47.304Z,925.30
2018-10-15T01:40:18.877Z,925.28
2018-10-15T01:41:50.449Z,925.22
2018-10-15T01:43:22.117Z,925.25
2018-10-15T01:44:53.790Z,925.22
2018-10-15T01:46:25.162Z,925.20
2018-10-15T01:47:56.731Z,925.23
2018-10-15T01:49:28.300Z,925.18
2018-10-15T01:50:59.873Z,925.15
2018-10-15T01:52:31.444Z,925.11
2018-10-15T01:54:03.015Z,925.09
2018-10-15T01:55:34.587Z,925.09
2018-10-15T01:57:06.172Z,925.12
2018-10-15T01:58:37.730Z,925.11
2018-10-15T02:00:09.300Z,925.14
2018-10-15T02:01:41.324Z,925.10
2018-10-15T02:03:12.442Z,925.08
2018-10-15T02:04:44.014Z,925.05
2018-10-15T02:06:15.585Z,925.01
2018-10-15T02:07:47.257Z,925.00
2018-10-15T02:09:18.732Z,924.98
2018-10-15T02:12:21.871Z,925.18
2018-10-15T02:13:53.444Z,925.19
2018-10-15T02:15:25.012Z,925.11
2018-10-15T02:16:56.584Z,925.00
2018-10-15T02:18:28.156Z,924.91
2018-10-15T02:19:59.825Z,924.87
2018-10-15T02:21:31.296Z,924.89
2018-10-15T02:23:02.868Z,924.91
2018-10-15T02:24:34.440Z,924.92
2018-10-15T02:26:06.012Z,924.86
2018-10-15T02:27:37.582Z,924.80
2018-10-15T02:29:09.159Z,924.72
2018-10-15T02:30:40.728Z,924.66
2018-10-15T02:32:12.297Z,924.68
2018-10-15T02:33:43.868Z,924.55
2018-10-15T02:35:15.439Z,924.54
2018-10-15T02:36:47.010Z,924.61
2018-10-15T02:38:18.681Z,924.60
2018-10-15T02:39:50.152Z,924.61
2018-10-15T02:41:21.725Z,924.63
2018-10-15T02:42:53.295Z,924.58
2018-10-15T02:44:24.967Z,924.61
2018-10-15T02:45:56.438Z,924.60
2018-10-15T02:47:28.008Z,924.56
2018-10-15T02:48:59.581Z,924.54
2018-10-15T02:50:31.155Z,924.51
2018-10-15T02:52:02.728Z,924.52
2018-10-15T02:53:34.296Z,924.51
2018-10-15T02:55:05.867Z,924.48
2018-10-15T02:56:37.550Z,924.54
2018-10-15T02:58:09.009Z,924.55
2018-10-15T02:59:40.580Z,924.57
2018-10-15T03:01:12.152Z,924.52
2018-10-15T03:02:43.723Z,924.55
2018-10-15T03:04:15.295Z,924.52
2018-10-15T03:05:46.868Z,924.51
2018-10-15T03:07:18.437Z,924.42
2018-10-15T03:08:50.111Z,924.38
2018-10-15T03:10:21.582Z,924.33
2018-10-15T03:11:53.161Z,924.22
2018-10-15T03:13:24.724Z,924.19
2018-10-15T03:16:27.968Z,924.21
2018-10-15T03:17:59.443Z,924.12
2018-10-15T03:19:31.012Z,924.10
2018-10-15T03:21:02.583Z,924.10
2018-10-15T03:22:34.159Z,924.10
2018-10-15T03:24:05.727Z,924.10
2018-10-15T03:25:37.300Z,924.11
2018-10-15T03:27:08.871Z,924.18
2018-10-15T03:28:40.443Z,924.10
2018-10-15T03:30:12.024Z,924.05
2018-10-15T03:33:15.159Z,923.99
2018-10-15T03:34:46.831Z,923.98
2018-10-15T03:36:18.305Z,923.92
2018-10-15T03:37:49.875Z,923.96
2018-10-15T03:39:21.445Z,923.98
2018-10-15T03:40:53.322Z,924.07
2018-10-15T03:42:24.590Z,924.06
2018-10-15T03:43:56.162Z,924.06
2018-10-15T03:45:27.735Z,923.99
2018-10-15T03:46:59.508Z,924.00
2018-10-15T03:48:30.877Z,924.03
2018-10-15T03:50:02.452Z,924.06
2018-10-15T03:51:34.023Z,924.02
2018-10-15T03:53:05.695Z,924.02
2018-10-15T03:54:37.166Z,924.01
2018-10-15T03:56:08.739Z,923.99
2018-10-15T03:59:11.883Z,923.91
2018-10-15T04:00:43.454Z,923.93
2018-10-15T04:02:15.143Z,923.92
2018-10-15T04:03:46.598Z,923.94
2018-10-15T04:05:18.271Z,923.90
2018-10-15T04:06:50.045Z,923.86
2018-10-15T04:08:21.333Z,923.88
2018-10-15T04:09:52.885Z,923.88
2018-10-15T04:11:24.658Z,923.90
2018-10-15T04:12:56.593Z,923.85
2018-10-15T04:14:27.639Z,923.83
2018-10-15T04:15:59.172Z,923.76
2018-10-15T04:17:30.744Z,923.72
2018-10-15T04:19:02.316Z,923.70
2018-10-15T04:20:33.887Z,923.63
2018-10-15T04:22:05.462Z,923.64
2018-10-15T04:23:37.031Z,923.62
2018-10-15T04:25:08.604Z,923.64
2018-10-15T04:26:40.176Z,923.60
2018-10-15T04:28:11.746Z,923.64
2018-10-15T04:29:43.420Z,923.66
2018-10-15T04:31:14.891Z,923.65
2018-10-15T04:32:46.461Z,923.67
2018-10-15T04:34:18.036Z,923.75
2018-10-15T04:35:49.707Z,923.76
2018-10-15T04:37:21.178Z,923.78
2018-10-15T04:38:52.749Z,923.79
2018-10-15T04:40:24.323Z,923.77
2018-10-15T04:41:55.993Z,923.78
2018-10-15T04:43:27.466Z,923.78
2018-10-15T04:44:59.036Z,923.79
2018-10-15T04:46:30.608Z,923.78
2018-10-15T04:48:02.285Z,923.78
2018-10-15T04:49:33.925Z,923.72
2018-10-15T04:51:05.323Z,923.79
2018-10-15T04:52:36.894Z,923.82
2018-10-15T04:54:08.470Z,923.83
2018-10-15T04:55:40.039Z,923.84
2018-10-15T04:57:11.632Z,923.85
2018-10-15T04:58:43.182Z,923.71
2018-10-15T05:00:14.757Z,923.55
2018-10-15T05:01:46.528Z,923.42
2018-10-15T05:03:17.899Z,923.44
2018-10-15T05:04:49.470Z,923.47
2018-10-15T05:06:21.196Z,923.54
2018-10-15T05:07:52.614Z,923.55
2018-10-15T05:09:24.190Z,923.52
2018-10-15T05:10:55.757Z,923.52
2018-10-15T05:12:27.329Z,923.45
2018-10-15T05:13:58.902Z,923.30
2018-10-15T05:15:30.473Z,923.22
2018-10-15T05:17:02.044Z,923.17
2018-10-15T05:18:33.618Z,923.09
2018-10-15T05:20:05.190Z,923.04
2018-10-15T05:21:36.761Z,923.01
2018-10-15T05:23:08.333Z,922.96
2018-10-15T05:24:40.005Z,922.91
2018-10-15T05:26:11.475Z,922.84
2018-10-15T05:27:43.250Z,922.85
2018-10-15T05:29:14.618Z,922.86
2018-10-15T05:30:46.280Z,922.85
2018-10-15T05:32:17.760Z,922.89
2018-10-15T05:33:49.331Z,922.85
2018-10-15T05:35:20.903Z,922.78
2018-10-15T05:36:53.209Z,922.79
2018-10-15T05:38:24.044Z,922.79
2018-10-15T05:39:55.620Z,922.79
2018-10-15T05:41:27.186Z,922.74
2018-10-15T05:42:58.960Z,922.73
2018-10-15T05:44:30.331Z,922.77
2018-10-15T05:46:01.902Z,922.77
2018-10-15T05:47:33.471Z,922.80
2018-10-15T05:49:05.143Z,922.75
2018-10-15T05:50:36.613Z,922.74
2018-10-15T05:52:08.314Z,922.81
2018-10-15T05:53:40.064Z,922.78
2018-10-15T05:55:11.326Z,922.77
2018-10-15T05:56:42.897Z,922.77
2018-10-15T05:58:14.467Z,922.76
2018-10-15T05:59:46.040Z,922.72
2018-10-15T06:01:17.712Z,922.78
2018-10-15T06:02:49.182Z,922.77
2018-10-15T06:04:20.752Z,922.79
2018-10-15T06:05:52.323Z,922.79
2018-10-15T06:07:23.994Z,922.78
2018-10-15T06:08:55.465Z,922.81
2018-10-15T06:10:27.035Z,922.85
2018-10-15T06:11:58.609Z,922.87
2018-10-15T06:13:30.211Z,922.89
2018-10-15T06:15:01.748Z,922.92
2018-10-15T06:16:33.319Z,922.97
2018-10-15T06:18:04.945Z,922.98
2018-10-15T06:19:36.561Z,922.93
2018-10-15T06:21:08.031Z,922.92
2018-10-15T06:22:39.621Z,922.91
2018-10-15T06:24:11.221Z,922.91
2018-10-15T06:25:42.745Z,922.89
2018-10-15T06:27:14.316Z,922.97
2018-10-15T06:28:45.888Z,922.96
2018-10-15T06:30:17.564Z,922.95
2018-10-15T06:31:49.028Z,922.95
2018-10-15T06:33:20.604Z,922.89
2018-10-15T06:36:23.824Z,922.83
2018-10-15T06:37:55.515Z,922.82
2018-10-15T06:39:26.885Z,922.83
2018-10-15T06:40:58.457Z,922.87
2018-10-15T06:42:30.028Z,922.82
2018-10-15T06:44:01.778Z,922.78
2018-10-15T06:45:33.170Z,922.74
2018-10-15T06:47:04.790Z,922.76
2018-10-15T06:48:36.311Z,922.81
2018-10-15T06:50:07.884Z,922.79
2018-10-15T06:51:39.455Z,922.87
2018-10-15T06:53:11.062Z,923.03
2018-10-15T06:54:42.599Z,923.34
2018-10-15T06:56:14.267Z,923.49
2018-10-15T06:57:45.738Z,923.48
2018-10-15T06:59:17.389Z,923.43
2018-10-15T07:00:48.880Z,923.28
2018-10-15T07:02:20.512Z,923.01
2018-10-15T07:03:52.022Z,922.73
2018-10-15T07:05:23.591Z,922.75
2018-10-15T07:06:55.163Z,922.89
2018-10-15T07:08:26.833Z,923.04
2018-10-15T07:09:58.305Z,923.09
2018-10-15T07:11:29.874Z,923.11
2018-10-15T07:14:33.222Z,923.18
2018-10-15T07:16:04.633Z,923.21
2018-10-15T07:17:36.155Z,923.20
2018-10-15T07:19:07.731Z,923.24
2018-10-15T07:20:39.377Z,923.24
2018-10-15T07:22:10.885Z,923.27
2018-10-15T07:23:43.170Z,923.32
2018-10-15T07:25:14.009Z,923.34
2018-10-15T07:26:45.581Z,923.31
2018-10-15T07:28:17.184Z,923.34
2018-10-15T07:29:48.721Z,923.29
2018-10-15T07:31:20.292Z,923.30
2018-10-15T07:32:51.963Z,923.34
2018-10-15T07:34:23.555Z,923.37
2018-10-15T07:35:55.004Z,923.37
2018-10-15T07:37:26.574Z,923.35
2018-10-15T07:38:58.246Z,923.39
2018-10-15T07:40:29.720Z,923.39
2018-10-15T07:42:01.342Z,923.43
2018-10-15T07:43:32.861Z,923.42
2018-10-15T07:45:04.530Z,923.48
2018-10-15T07:46:36.071Z,923.48
2018-10-15T07:48:07.595Z,923.53
2018-10-15T07:49:39.671Z,923.61
2018-10-15T07:51:10.816Z,923.62
2018-10-15T07:52:42.289Z,923.60
2018-10-15T07:54:13.887Z,923.61
2018-10-15T07:55:45.426Z,923.63
2018-10-15T07:57:16.999Z,923.60
2018-10-15T07:58:48.568Z,923.60
2018-10-15T08:00:20.150Z,923.64
2018-10-15T08:01:52.317Z,923.75
2018-10-15T08:03:23.282Z,923.77
2018-10-15T08:04:54.851Z,923.72
2018-10-15T08:06:26.477Z,923.70
2018-10-15T08:07:57.992Z,923.76
2018-10-15T08:09:29.816Z,923.78
2018-10-15T08:12:32.709Z,923.97
2018-10-15T08:14:04.316Z,924.02
2018-10-15T08:15:36.065Z,924.09
2018-10-15T08:17:07.420Z,924.18
2018-10-15T08:18:38.990Z,924.29
2018-10-15T08:20:10.577Z,924.30
2018-10-15T08:23:13.702Z,924.40
2018-10-15T08:24:45.273Z,924.38
2018-10-15T08:26:16.882Z,924.35
2018-10-15T08:29:20.602Z,924.28
2018-10-15T08:30:51.556Z,924.22
2018-10-15T08:32:23.129Z,924.13
2018-10-15T08:33:54.697Z,924.06
2018-10-15T08:35:26.347Z,924.13
2018-10-15T08:36:57.841Z,924.07
2018-10-15T08:38:29.412Z,924.02
2018-10-15T08:40:00.988Z,924.05
2018-10-15T08:41:32.676Z,924.01
2018-10-15T08:43:04.326Z,923.92
2018-10-15T08:44:35.697Z,923.93
2018-10-15T08:46:07.267Z,923.92
2018-10-15T08:47:39.090Z,923.85
2018-10-15T08:49:10.407Z,923.72
2018-10-15T08:50:42.002Z,923.69
2018-10-15T08:52:13.551Z,923.68
2018-10-15T08:53:45.424Z,923.69
2018-10-15T08:55:16.692Z,923.67
2018-10-15T08:56:48.279Z,923.63
2018-10-15T08:58:19.834Z,923.63
2018-10-15T09:01:22.977Z,923.69
2018-10-15T09:02:54.732Z,923.62
2018-10-15T09:04:26.117Z,923.71
2018-10-15T09:05:57.689Z,923.78
2018-10-15T09:07:29.426Z,923.80
2018-10-15T09:09:01.262Z,923.74
2018-10-15T09:10:32.401Z,923.70
2018-10-15T09:12:04.087Z,923.59
2018-10-15T09:13:35.643Z,923.58
2018-10-15T09:15:07.179Z,923.63
2018-10-15T09:18:10.407Z,923.76
2018-10-15T09:19:42.056Z,923.78
2018-10-15T09:21:13.425Z,923.84
2018-10-15T09:22:45.192Z,923.76
2018-10-15T09:24:17.276Z,923.79
2018-10-15T09:25:48.444Z,923.80
2018-10-15T09:27:19.839Z,923.84
2018-10-15T09:28:51.255Z,923.86
2018-10-15T09:31:54.465Z,923.87
2018-10-15T09:33:26.004Z,923.83
2018-10-15T09:36:29.677Z,923.83
2018-10-15T09:38:00.966Z,923.90
2018-10-15T09:39:32.313Z,923.91
2018-10-15T09:41:04.010Z,923.93
2018-10-15T09:42:35.399Z,924.03
2018-10-15T09:44:07.815Z,924.01
2018-10-15T09:45:38.728Z,924.04
2018-10-15T09:47:10.140Z,924.04
2018-10-15T09:48:41.935Z,924.12
2018-10-15T09:50:13.753Z,924.07
2018-10-15T09:51:45.274Z,924.08
2018-10-15T09:53:16.756Z,924.14
2018-10-15T09:54:48.302Z,924.14
2018-10-15T09:57:51.603Z,924.15
2018-10-15T09:59:22.704Z,924.18
2018-10-15T10:00:54.975Z,924.13
2018-10-15T10:02:26.051Z,924.13
2018-10-15T10:03:57.582Z,924.12
2018-10-15T10:05:28.985Z,924.14
2018-10-15T10:07:00.767Z,924.06
2018-10-15T10:08:32.344Z,924.06
2018-10-15T10:10:03.688Z,924.06
2018-10-15T10:11:35.962Z,924.02
2018-10-15T10:13:06.870Z,924.03
2018-10-15T10:14:38.680Z,924.15
2018-10-15T10:16:10.544Z,924.14
2018-10-15T10:17:41.898Z,924.14
2018-10-15T10:19:13.324Z,924.16
2018-10-15T10:20:44.778Z,924.27
2018-10-15T10:23:48.304Z,924.36
2018-10-15T10:25:19.836Z,924.40
2018-10-15T10:26:51.368Z,924.44
2018-10-15T10:29:54.442Z,924.54
2018-10-15T10:31:26.025Z,924.53
2018-10-15T10:32:57.432Z,924.50
2018-10-15T10:34:28.842Z,924.55
2018-10-15T10:36:00.911Z,924.53
2018-10-15T10:37:32.195Z,924.55
2018-10-15T10:39:03.943Z,924.56
2018-10-15T10:40:35.334Z,924.51
2018-10-15T10:42:07.776Z,924.50
2018-10-15T10:43:39.154Z,924.50
2018-10-15T10:46:41.588Z,924.64
2018-10-15T10:48:13.079Z,924.65
2018-10-15T10:49:45.573Z,924.63
2018-10-15T10:51:16.741Z,924.61
2018-10-15T10:52:49.540Z,924.63
2018-10-15T10:54:19.499Z,924.67
2018-10-15T10:55:50.959Z,924.68
2018-10-15T10:57:22.845Z,924.69
2018-10-15T10:58:54.021Z,924.64
2018-10-15T11:00:26.015Z,924.62
2018-10-15T11:01:57.566Z,924.61
2018-10-15T11:03:29.905Z,924.60
2018-10-15T11:05:01.307Z,924.66
2018-10-15T11:06:32.539Z,924.67
2018-10-15T11:08:04.116Z,924.68
2018-10-15T11:09:36.404Z,924.69
2018-10-15T11:11:08.052Z,924.81
2018-10-15T11:12:39.599Z,924.83
2018-10-15T11:14:11.074Z,924.85
2018-10-15T11:15:41.606Z,924.89
2018-10-15T11:17:13.179Z,924.86
2018-10-15T11:18:44.810Z,924.84
2018-10-15T11:20:16.103Z,924.82
2018-10-15T11:21:47.908Z,924.80
2018-10-15T11:23:19.415Z,924.83
2018-10-15T11:26:22.387Z,924.92
2018-10-15T11:27:54.394Z,924.84
2018-10-15T11:29:25.533Z,924.84
2018-10-15T11:30:57.865Z,924.83
2018-10-15T11:32:28.812Z,924.91
2018-10-15T11:34:00.952Z,924.89
2018-10-15T11:35:31.836Z,924.86
2018-10-15T11:37:04.403Z,924.82
2018-10-15T11:38:35.491Z,924.91
2018-10-15T11:40:07.305Z,924.86
2018-10-15T11:41:39.641Z,924.86
2018-10-15T11:43:12.707Z,924.89
2018-10-15T11:44:42.997Z,924.92
2018-10-15T11:46:14.502Z,924.87
2018-10-15T11:47:46.403Z,924.96
2018-10-15T11:49:17.775Z,924.96
2018-10-15T11:50:47.969Z,924.99
2018-10-15T11:52:19.976Z,924.96
2018-10-15T11:53:52.005Z,925.00
2018-10-15T11:55:23.570Z,925.09
2018-10-15T11:56:55.590Z,925.11
2018-10-15T11:58:27.018Z,925.08
2018-10-15T11:59:58.936Z,925.09
2018-10-15T12:01:29.542Z,925.16
2018-10-15T12:03:01.411Z,925.14
2018-10-15T12:04:33.046Z,925.12
2018-10-15T12:06:04.150Z,925.10
2018-10-15T12:07:35.718Z,925.19
2018-10-15T12:09:06.462Z,925.25
2018-10-15T12:10:39.694Z,925.20
2018-10-15T12:12:09.902Z,925.17
2018-10-15T12:13:41.420Z,925.17
2018-10-15T12:15:15.179Z,925.15
2018-10-15T12:16:45.953Z,925.10
2018-10-15T12:18:17.287Z,925.05
2018-10-15T12:19:49.956Z,925.10
2018-10-15T12:21:20.029Z,925.10
2018-10-15T12:22:51.173Z,925.10
2018-10-15T12:24:22.197Z,925.04
2018-10-15T12:25:54.022Z,925.05
2018-10-15T12:27:26.696Z,925.02
2018-10-15T12:28:57.236Z,924.99
2018-10-15T12:30:28.539Z,924.95
2018-10-15T12:32:00.933Z,925.00
2018-10-15T12:35:04.802Z,925.11
2018-10-15T12:36:35.135Z,925.12
2018-10-15T12:38:06.837Z,925.14
2018-10-15T12:39:38.820Z,925.09
2018-10-15T12:41:11.367Z,925.14
2018-10-15T12:42:42.025Z,925.13
2018-10-15T12:44:14.344Z,925.12
2018-10-15T12:45:45.911Z,925.05
2018-10-15T12:47:16.536Z,925.09
2018-10-15T12:48:48.712Z,925.18
2018-10-15T12:50:21.277Z,925.09
2018-10-15T12:51:51.235Z,925.11
2018-10-15T12:53:23.670Z,924.99
2018-10-15T12:54:54.374Z,924.91
2018-10-15T12:56:27.332Z,924.95
2018-10-15T12:57:56.936Z,925.51
2018-10-15T13:01:00.644Z,925.19
2018-10-15T13:02:31.771Z,925.08
2018-10-15T13:04:03.263Z,925.10
2018-10-15T13:05:35.200Z,925.14
2018-10-15T13:07:06.691Z,925.12
2018-10-15T13:10:09.985Z,924.99
2018-10-15T13:11:41.608Z,924.92
2018-10-15T13:13:13.423Z,924.72
2018-10-15T13:14:45.484Z,924.75
2018-10-15T13:16:16.589Z,924.69
2018-10-15T13:17:47.543Z,924.77
2018-10-15T13:19:19.316Z,924.87
2018-10-15T13:20:51.022Z,925.09
2018-10-15T13:22:23.343Z,925.09
2018-10-15T13:23:54.181Z,925.01
2018-10-15T13:25:25.884Z,925.32
2018-10-15T13:26:57.157Z,925.39
2018-10-15T13:28:28.604Z,924.85
2018-10-15T13:30:00.423Z,924.85
2018-10-15T13:31:32.879Z,925.49
2018-10-15T13:33:04.936Z,925.44
2018-10-15T13:34:36.176Z,925.24
2018-10-15T13:37:38.561Z,925.20
2018-10-15T13:39:09.625Z,925.09
2018-10-15T13:40:42.238Z,925.06
2018-10-15T13:42:12.955Z,925.10
2018-10-15T13:45:16.185Z,925.61
2018-10-15T13:46:48.063Z,925.39
2018-10-15T13:48:19.683Z,925.27
2018-10-15T13:49:51.259Z,925.31
2018-10-15T13:51:22.877Z,924.99
2018-10-15T13:52:55.166Z,924.94
2018-10-15T13:54:25.919Z,924.95
2018-10-15T13:55:57.051Z,924.82
2018-10-15T13:57:29.325Z,924.81
2018-10-15T14:00:32.496Z,924.81
2018-10-15T14:02:04.355Z,924.89
2018-10-15T14:03:35.401Z,924.83
2018-10-15T14:05:07.080Z,924.85
2018-10-15T14:06:39.763Z,924.93
2018-10-15T14:08:10.115Z,924.79
2018-10-15T14:09:42.371Z,924.88
2018-10-15T14:11:13.886Z,924.64
2018-10-15T14:12:46.458Z,924.58
2018-10-15T14:14:18.551Z,924.71
2018-10-15T14:15:48.744Z,924.57
2018-10-15T14:17:19.524Z,924.62
2018-10-15T14:18:51.468Z,924.58
2018-10-15T14:20:22.220Z,924.91
2018-10-15T14:21:53.920Z,924.89
2018-10-15T14:23:26.011Z,924.79
2018-10-15T14:24:57.213Z,924.93
2018-10-15T14:26:29.760Z,924.82
2018-10-15T14:28:02.457Z,924.91
2018-10-15T14:29:32.513Z,924.56
2018-10-15T14:31:04.977Z,924.60
2018-10-15T14:32:35.697Z,924.55
2018-10-15T14:34:07.318Z,924.87
2018-10-15T14:35:38.992Z,925.05
2018-10-15T14:37:10.260Z,924.97
2018-10-15T14:38:42.321Z,924.53
2018-10-15T14:41:45.238Z,924.36
2018-10-15T14:43:17.075Z,924.60
2018-10-15T14:44:48.888Z,924.53
2018-10-15T14:46:19.213Z,924.52
2018-10-15T14:47:51.190Z,924.40
2018-10-15T14:49:24.696Z,924.56
2018-10-15T14:50:54.161Z,924.59
2018-10-15T14:52:26.638Z,924.80
2018-10-15T14:53:58.834Z,924.64
2018-10-15T14:55:29.175Z,924.42
2018-10-15T14:57:00.210Z,924.49
2018-10-15T14:58:33.265Z,924.70
2018-10-15T15:00:07.211Z,924.68
2018-10-15T15:01:36.199Z,924.68
2018-10-15T15:03:07.733Z,924.48
2018-10-15T15:04:38.240Z,924.50
2018-10-15T15:06:09.929Z,924.54
2018-10-15T15:07:41.619Z,924.40
2018-10-15T15:09:13.307Z,924.65
2018-10-15T15:10:44.444Z,924.35
2018-10-15T15:12:16.656Z,924.10
2018-10-15T15:13:47.992Z,924.24
2018-10-15T15:15:19.353Z,924.15
2018-10-15T15:16:51.165Z,923.90
2018-10-15T15:19:53.976Z,924.45
2018-10-15T15:21:25.510Z,924.50
2018-10-15T15:22:58.581Z,924.25
2018-10-15T15:24:28.990Z,924.05
2018-10-15T15:26:00.829Z,924.03
2018-10-15T15:29:03.451Z,924.14
2018-10-15T15:30:35.582Z,924.04
2018-10-15T15:32:09.008Z,923.85
2018-10-15T15:35:10.325Z,923.83
2018-10-15T15:36:41.421Z,923.85
2018-10-15T15:39:45.100Z,923.73
2018-10-15T15:41:16.372Z,923.67
2018-10-15T15:42:48.447Z,923.69
2018-10-15T15:44:19.711Z,923.81
2018-10-15T15:45:51.088Z,923.65
2018-10-15T15:47:23.116Z,923.54
2018-10-15T15:48:54.037Z,923.77
2018-10-15T15:50:26.262Z,923.66
2018-10-15T15:51:57.673Z,923.47
2018-10-15T15:53:29.171Z,923.60
2018-10-15T15:55:00.359Z,923.73
2018-10-15T15:56:32.720Z,923.46
2018-10-15T15:58:07.964Z,923.36
2018-10-15T15:59:35.805Z,923.36
2018-10-15T16:01:06.937Z,923.41
2018-10-15T16:02:39.427Z,923.44
2018-10-15T16:04:09.939Z,923.45
2018-10-15T16:05:42.341Z,923.39
2018-10-15T16:07:14.794Z,923.44
2018-10-15T16:08:44.655Z,923.40
2018-10-15T16:10:16.156Z,923.37
2018-10-15T16:11:47.874Z,923.35
2018-10-15T16:13:19.957Z,923.46
2018-10-15T16:17:54.046Z,923.52
2018-10-15T16:19:26.079Z,923.48
2018-10-15T16:20:58.053Z,923.34
2018-10-15T16:22:28.787Z,923.30
2018-10-15T16:24:01.181Z,923.44
2018-10-15T16:25:33.049Z,923.80
2018-10-15T16:27:05.803Z,923.62
2018-10-15T16:28:37.992Z,923.45
2018-10-15T16:30:07.352Z,923.26
2018-10-15T16:31:39.062Z,923.34
2018-10-15T16:33:09.924Z,923.51
2018-10-15T16:36:14.383Z,923.70
2018-10-15T16:37:44.906Z,923.60
2018-10-15T16:39:18.024Z,923.63
2018-10-15T16:40:49.148Z,923.58
2018-10-15T16:42:21.173Z,923.73
2018-10-15T16:43:52.063Z,923.76
2018-10-15T16:45:27.039Z,923.63
2018-10-15T16:46:56.270Z,923.65
2018-10-15T16:48:26.246Z,923.53
2018-10-15T16:49:58.987Z,923.49
2018-10-15T16:51:32.339Z,923.38
2018-10-15T16:53:01.311Z,923.18
2018-10-15T16:54:32.269Z,923.54
2018-10-15T16:56:03.853Z,923.36
2018-10-15T16:57:36.520Z,923.21
2018-10-15T16:59:07.541Z,923.29
2018-10-15T17:00:38.416Z,923.17
2018-10-15T17:02:10.908Z,923.06
2018-10-15T17:03:41.479Z,922.99
2018-10-15T17:05:13.486Z,922.85
2018-10-15T17:06:45.999Z,922.95
2018-10-15T17:08:16.356Z,923.21
2018-10-15T17:09:48.124Z,923.00
2018-10-15T17:11:20.640Z,922.85
2018-10-15T17:12:51.321Z,922.79
2018-10-15T17:14:22.646Z,922.97
2018-10-15T17:15:54.427Z,923.13
2018-10-15T17:17:25.834Z,922.91
2018-10-15T17:18:57.434Z,922.93
2018-10-15T17:22:00.598Z,922.71
2018-10-15T17:23:31.984Z,922.79
2018-10-15T17:25:04.097Z,922.75
2018-10-15T17:26:35.145Z,922.93
2018-10-15T17:28:06.928Z,922.79
2018-10-15T17:29:38.963Z,922.83
2018-10-15T17:31:10.091Z,922.85
2018-10-15T17:32:41.671Z,922.55
2018-10-15T17:34:13.052Z,922.46
2018-10-15T17:37:16.519Z,922.44
2018-10-15T17:38:47.994Z,922.43
2018-10-15T17:40:19.986Z,922.52
2018-10-15T17:41:50.952Z,922.42
2018-10-15T17:43:22.588Z,922.53
2018-10-15T17:44:54.110Z,922.54
2018-10-15T17:46:25.688Z,922.45
2018-10-15T17:47:57.274Z,922.31
2018-10-15T17:49:29.149Z,922.29
2018-10-15T17:51:00.647Z,922.28
2018-10-15T17:52:32.316Z,922.23
2018-10-15T17:54:03.781Z,922.21
2018-10-15T17:55:35.420Z,922.26
2018-10-15T17:57:07.036Z,922.25
2018-10-15T17:58:38.309Z,922.27
2018-10-15T18:00:09.888Z,922.26
2018-10-15T18:01:41.462Z,922.14
2018-10-15T18:03:13.240Z,922.09
2018-10-15T18:04:44.616Z,922.11
2018-10-15T18:06:16.502Z,922.17
2018-10-15T18:07:47.975Z,922.18
2018-10-15T18:09:19.870Z,922.15
2018-10-15T18:10:51.057Z,922.18
2018-10-15T18:12:22.580Z,922.17
2018-10-15T18:16:57.477Z,922.10
2018-10-15T18:18:28.803Z,922.11
2018-10-15T18:20:00.577Z,922.14
2018-10-15T18:21:31.944Z,922.11
2018-10-15T18:23:03.524Z,922.14
2018-10-15T18:24:35.754Z,922.15
2018-10-15T18:26:06.670Z,922.10
2018-10-15T18:32:13.190Z,922.21
2018-10-15T18:33:44.543Z,922.26
2018-10-15T18:35:16.117Z,922.18
2018-10-15T18:36:48.423Z,922.15
2018-10-15T18:38:19.311Z,922.11
2018-10-15T18:39:51.569Z,922.04
2018-10-15T18:41:23.201Z,921.93
2018-10-15T18:42:54.024Z,921.93
2018-10-15T18:45:57.657Z,922.09
2018-10-15T18:47:29.019Z,921.98
2018-10-15T18:49:00.425Z,922.04
2018-10-15T18:50:32.171Z,921.98
2018-10-15T18:52:03.604Z,922.00
2018-10-15T18:53:35.009Z,922.18
2018-10-15T18:55:06.932Z,922.10
2018-10-15T18:56:38.248Z,922.31
2018-10-15T18:58:09.738Z,922.39
2018-10-15T18:59:41.512Z,922.33
2018-10-15T19:02:44.457Z,922.33
2018-10-15T19:04:16.031Z,922.23
2018-10-15T19:05:48.008Z,922.18
2018-10-15T19:07:19.823Z,922.28
2018-10-15T19:08:50.961Z,922.34
2018-10-15T19:10:22.635Z,922.41
2018-10-15T19:11:54.442Z,922.40
2018-10-15T19:13:25.841Z,922.42
2018-10-15T19:14:57.633Z,922.38
2018-10-15T19:16:28.888Z,922.47
2018-10-15T19:18:00.569Z,922.45
2018-10-15T19:19:31.865Z,922.39
2018-10-15T19:21:03.619Z,922.58
2018-10-15T19:22:34.939Z,922.50
2018-10-15T19:24:06.536Z,922.45
2018-10-15T19:27:09.665Z,922.49
2018-10-15T19:28:41.429Z,922.58
2018-10-15T19:30:13.681Z,922.55
2018-10-15T19:31:44.868Z,922.59
2018-10-15T19:33:15.965Z,922.50
2018-10-15T19:34:47.604Z,922.51
2018-10-15T19:36:19.254Z,922.47
2018-10-15T19:37:50.692Z,922.50
2018-10-15T19:39:22.272Z,922.37
2018-10-15T19:40:53.841Z,922.53
2018-10-15T19:43:56.991Z,922.61
2018-10-15T19:45:28.756Z,922.49
2018-10-15T19:47:00.453Z,922.59
2018-10-15T19:48:31.723Z,922.52
2018-10-15T19:50:04.124Z,922.59
2018-10-15T19:51:35.222Z,922.54
2018-10-15T19:54:38.034Z,922.62
2018-10-15T19:56:09.794Z,922.58
2018-10-15T20:02:16.030Z,922.66
2018-10-15T20:03:47.879Z,922.53
2018-10-15T20:05:19.602Z,922.50
2018-10-15T20:06:50.817Z,922.61
2018-10-15T20:08:22.403Z,922.51
2018-10-15T20:09:54.236Z,922.51
2018-10-15T20:11:26.699Z,922.51
2018-10-15T20:12:57.411Z,922.53
2018-10-15T20:14:28.580Z,922.57
2018-10-15T20:17:32.162Z,922.56
2018-10-15T20:19:03.199Z,922.55